Time;durP1;ratioP1;P1;durP2;ratioP2;P2;SDS_P1;SDS_P2;PMS_P1;PMS_P2;Temp;Humidity;BMP_temperature;BMP_pressure;BME280_temperature;BME280_humidity;BME280_pressure;Samples;Min_cycle;Max_cycle;Signal;HPM_P1;HPM_P2
2022/01/26 00:06:43;;;;;;;60.42;31.48;;;;;;;;;;5041984;28;20143;-46
2022/01/26 00:09:09;;;;;;;57.58;31.25;;;;;;;;;;5041726;28;20123;-48
2022/01/26 00:11:36;;;;;;;59.20;31.95;;;;;;;;;;5025295;28;20026;-47
2022/01/26 00:14:08;;;;;;;57.15;31.10;;;;;;;;;;5035267;28;20028;-48
2022/01/26 00:16:42;;;;;;;63.15;31.98;;;;;;;;;;5045214;28;20120;-47
2022/01/26 00:19:09;;;;;;;;;;;;;;;;;;5046330;28;20029;-47
2022/01/26 00:21:41;;;;;;;70.65;35.20;;;;;;;;;;5045023;28;19912;-46
2022/01/26 00:24:24;;;;;;;66.82;35.50;;;;;;;;;;5028141;28;20516;-46
2022/01/26 00:29:20;;;;;;;69.40;37.95;;;;;;;;;;5035160;28;20029;-47
2022/01/26 00:40:08;;;;;;;57.65;31.63;;;;;;;;;;5045996;28;20086;-47
2022/01/26 00:42:38;;;;;;;59.53;30.23;;;;;;;;;;5044059;28;20531;-47
2022/01/26 00:45:08;;;;;;;64.25;31.55;;;;;;;;;;5044497;28;20032;-48
2022/01/26 00:47:34;;;;;;;61.47;30.75;;;;;;;;;;5043158;28;20033;-47
2022/01/26 00:50:05;;;;;;;55.13;28.25;;;;;;;;;;5031758;28;20100;-49
2022/01/26 00:52:43;;;;;;;49.85;25.77;;;;;;;;;;5039174;28;20032;-46
2022/01/26 00:55:11;;;;;;;54.10;27.08;;;;;;;;;;5046864;28;20021;-47
2022/01/26 00:57:37;;;;;;;57.00;28.38;;;;;;;;;;5046522;28;20033;-48
2022/01/26 01:00:05;;;;;;;50.65;26.17;;;;;;;;;;5047096;28;20072;-46
2022/01/26 01:02:32;;;;;;;53.22;27.13;;;;;;;;;;5037846;28;20124;-47
2022/01/26 01:05:02;;;;;;;47.33;25.48;;;;;;;;;;5035658;28;20025;-46
2022/01/26 01:07:32;;;;;;;51.72;26.80;;;;;;;;;;5046874;28;20078;-47
2022/01/26 01:09:59;;;;;;;50.33;26.10;;;;;;;;;;5047314;28;20078;-47
2022/01/26 01:12:25;;;;;;;45.55;23.33;;;;;;;;;;5042495;28;20124;-47
2022/01/26 01:14:51;;;;;;;44.83;24.30;;;;;;;;;;5045796;28;20107;-47
2022/01/26 01:17:25;;;;;;;43.95;22.83;;;;;;;;;;5044944;28;20029;-49
2022/01/26 01:28:16;;;;;;;44.53;22.52;;;;;;;;;;5025791;28;20463;-46
2022/01/26 01:30:47;;;;;;;42.88;21.98;;;;;;;;;;5024478;28;20416;-48
2022/01/26 01:33:20;;;;;;;38.90;20.25;;;;;;;;;;5024951;28;20036;-46
2022/01/26 01:35:47;;;;;;;40.53;20.63;;;;;;;;;;5038265;28;20025;-46
2022/01/26 01:38:16;;;;;;;39.97;21.55;;;;;;;;;;5045103;28;20479;-56
2022/01/26 01:40:47;;;;;;;38.50;21.35;;;;;;;;;;5042892;28;20033;-56
2022/01/26 01:43:14;;;;;;;44.00;22.73;;;;;;;;;;5028770;28;20374;-55
2022/01/26 01:45:43;;;;;;;41.65;22.25;;;;;;;;;;5042320;28;20025;-55
2022/01/26 01:48:12;;;;;;;41.90;21.95;;;;;;;;;;5044756;28;20040;-55
2022/01/26 01:50:41;;;;;;;42.88;22.88;;;;;;;;;;5044152;28;20021;-55
2022/01/26 01:53:08;;;;;;;41.03;21.33;;;;;;;;;;5044863;28;20545;-54
2022/01/26 01:55:38;;;;;;;43.90;22.02;;;;;;;;;;5029089;28;20121;-55
2022/01/26 01:58:05;;;;;;;43.38;22.17;;;;;;;;;;5024647;28;20103;-55
2022/01/26 02:00:31;;;;;;;40.80;21.23;;;;;;;;;;5024737;28;20504;-55
2022/01/26 02:02:57;;;;;;;37.63;20.70;;;;;;;;;;5025394;28;20124;-55
2022/01/26 02:05:23;;;;;;;38.38;20.23;;;;;;;;;;5023874;28;20056;-55
2022/01/26 02:07:50;;;;;;;39.65;21.70;;;;;;;;;;5042778;28;20033;-56
2022/01/26 02:10:16;;;;;;;38.65;20.08;;;;;;;;;;5024853;28;20033;-55
2022/01/26 02:12:47;;;;;;;35.08;18.85;;;;;;;;;;5044028;28;20048;-56
2022/01/26 02:15:19;;;;;;;39.25;20.35;;;;;;;;;;5044351;28;20025;-55
2022/01/26 02:55:42;;;;;;;36.22;19.38;;;;;;;;;;5043483;28;20412;-55
2022/01/26 03:01:06;;;;;;;35.60;19.50;;;;;;;;;;5027610;28;20088;-55
2022/01/26 03:03:39;;;;;;;33.83;18.17;;;;;;;;;;5027429;28;20508;-55
2022/01/26 03:06:14;;;;;;;35.67;18.90;;;;;;;;;;5027524;28;20413;-55
2022/01/26 03:08:50;;;;;;;34.33;17.85;;;;;;;;;;5041691;28;20036;-53
2022/01/26 03:11:17;;;;;;;32.55;17.88;;;;;;;;;;5047274;28;20029;-55
2022/01/26 03:13:50;;;;;;;33.55;18.92;;;;;;;;;;5047571;28;20036;-55
2022/01/26 03:16:29;;;;;;;33.70;19.13;;;;;;;;;;5047107;28;20443;-54
2022/01/26 03:21:40;;;;;;;31.38;18.00;;;;;;;;;;5026842;28;20064;-55
2022/01/26 03:34:31;;;;;;;30.92;17.48;;;;;;;;;;5031722;28;20080;-54
2022/01/26 03:37:01;;;;;;;31.85;17.67;;;;;;;;;;5027423;28;20100;-54
2022/01/26 03:39:29;;;;;;;30.95;17.33;;;;;;;;;;5025959;28;20523;-50
2022/01/26 03:42:04;;;;;;;30.38;18.55;;;;;;;;;;5025642;28;20036;-55
2022/01/26 03:44:31;;;;;;;31.92;18.13;;;;;;;;;;5026918;28;20021;-55
2022/01/26 03:46:57;;;;;;;32.05;18.30;;;;;;;;;;5043151;28;20055;-54
2022/01/26 03:49:23;;;;;;;32.33;17.52;;;;;;;;;;5045429;28;20470;-54
2022/01/26 03:51:50;;;;;;;31.65;17.73;;;;;;;;;;5046601;28;20507;-54
2022/01/26 03:54:18;;;;;;;30.70;17.48;;;;;;;;;;5046526;28;20037;-54
2022/01/26 03:56:44;;;;;;;31.10;17.50;;;;;;;;;;5044273;28;20014;-54
2022/01/26 03:59:11;;;;;;;29.55;17.38;;;;;;;;;;5043248;28;20045;-54
2022/01/26 04:01:38;;;;;;;30.38;16.77;;;;;;;;;;5046405;28;20416;-54
2022/01/26 04:04:05;;;;;;;30.02;16.80;;;;;;;;;;5044421;28;20503;-55
2022/01/26 04:06:33;;;;;;;28.17;16.73;;;;;;;;;;5046984;28;20512;-54
2022/01/26 04:08:59;;;;;;;27.88;16.08;;;;;;;;;;5033812;28;20371;-52
2022/01/26 04:11:37;;;;;;;26.65;15.07;;;;;;;;;;5045759;28;20018;-54
2022/01/26 04:14:06;;;;;;;28.88;16.77;;;;;;;;;;5046351;28;20033;-54
2022/01/26 04:16:33;;;;;;;28.75;16.25;;;;;;;;;;5042724;28;20511;-55
2022/01/26 04:18:59;;;;;;;23.88;14.30;;;;;;;;;;5046947;28;20025;-54
2022/01/26 04:24:08;;;;;;;23.52;14.18;;;;;;;;;;5046680;28;20067;-53
2022/01/26 04:26:43;;;;;;;21.85;13.30;;;;;;;;;;5045448;28;20048;-54
2022/01/26 04:29:14;;;;;;;24.98;14.55;;;;;;;;;;5045767;28;20029;-52
2022/01/26 04:31:40;;;;;;;22.10;13.23;;;;;;;;;;5044069;28;20048;-53
2022/01/26 04:34:07;;;;;;;24.40;14.13;;;;;;;;;;5045529;28;20029;-51
2022/01/26 04:36:41;;;;;;;22.17;13.55;;;;;;;;;;5045284;28;20538;-51
2022/01/26 04:39:12;;;;;;;25.88;14.68;;;;;;;;;;5045812;28;20023;-53
2022/01/26 04:41:48;;;;;;;25.65;15.07;;;;;;;;;;5045336;28;20524;-51
2022/01/26 04:44:22;;;;;;;28.30;14.98;;;;;;;;;;5043354;28;20060;-53
2022/01/26 04:46:50;;;;;;;26.42;15.05;;;;;;;;;;5043861;28;20039;-51
2022/01/26 04:49:16;;;;;;;23.08;14.02;;;;;;;;;;5039922;28;20055;-50
2022/01/26 04:51:42;;;;;;;25.13;14.35;;;;;;;;;;5045143;28;20071;-53
2022/01/26 04:54:09;;;;;;;27.60;16.20;;;;;;;;;;5045469;28;20025;-51
2022/01/26 04:56:35;;;;;;;25.58;14.90;;;;;;;;;;5043357;28;20025;-51
2022/01/26 04:59:02;;;;;;;25.58;15.07;;;;;;;;;;5045654;28;20025;-53
2022/01/26 05:01:28;;;;;;;25.33;16.05;;;;;;;;;;5043576;28;20029;-51
2022/01/26 05:03:54;;;;;;;29.50;16.88;;;;;;;;;;5045423;28;20417;-52
2022/01/26 05:06:20;;;;;;;28.80;16.73;;;;;;;;;;5045245;28;20111;-54
2022/01/26 05:08:46;;;;;;;28.17;16.33;;;;;;;;;;5042875;28;20037;-50
2022/01/26 05:11:17;;;;;;;30.42;16.85;;;;;;;;;;5044853;28;20029;-52
2022/01/26 05:13:43;;;;;;;30.73;17.27;;;;;;;;;;5028209;28;20033;-50
2022/01/26 05:16:10;;;;;;;33.67;17.92;;;;;;;;;;5025231;28;20496;-50
2022/01/26 05:18:37;;;;;;;31.50;17.40;;;;;;;;;;5024657;28;20029;-51
2022/01/26 05:21:04;;;;;;;28.95;16.90;;;;;;;;;;5030937;28;20071;-53
2022/01/26 05:23:30;;;;;;;28.17;16.65;;;;;;;;;;5045353;28;20033;-50
2022/01/26 05:25:56;;;;;;;30.40;17.45;;;;;;;;;;5025265;28;20500;-51
2022/01/26 05:28:22;;;;;;;30.58;17.30;;;;;;;;;;5024757;28;20197;-51
2022/01/26 05:30:49;;;;;;;31.73;18.15;;;;;;;;;;5040105;28;20056;-51
2022/01/26 05:33:16;;;;;;;30.67;17.65;;;;;;;;;;5043522;28;20025;-52
2022/01/26 05:35:42;;;;;;;36.10;20.35;;;;;;;;;;5036820;28;20021;-50
2022/01/26 05:38:08;;;;;;;37.67;21.63;;;;;;;;;;5024825;28;20028;-54
2022/01/26 05:40:34;;;;;;;35.53;20.70;;;;;;;;;;5024619;28;20068;-54
2022/01/26 05:43:00;;;;;;;33.88;19.35;;;;;;;;;;5025103;28;20022;-52
2022/01/26 05:45:35;;;;;;;31.35;17.77;;;;;;;;;;5024597;28;20036;-50
2022/01/26 05:48:02;;;;;;;31.40;18.65;;;;;;;;;;5033092;28;20025;-51
2022/01/26 05:50:28;;;;;;;31.65;18.15;;;;;;;;;;5036543;28;20038;-52
2022/01/26 05:52:54;;;;;;;30.85;17.50;;;;;;;;;;5044414;28;20033;-51
2022/01/26 05:55:20;;;;;;;26.35;15.75;;;;;;;;;;5044450;28;20274;-53
2022/01/26 05:57:46;;;;;;;26.08;15.95;;;;;;;;;;5041858;28;20509;-50
2022/01/26 06:00:13;;;;;;;29.30;16.23;;;;;;;;;;5044666;28;20163;-52
2022/01/26 06:02:39;;;;;;;27.95;16.15;;;;;;;;;;5044204;28;20036;-51
2022/01/26 06:05:05;;;;;;;25.67;15.45;;;;;;;;;;5044252;28;20033;-50
2022/01/26 06:07:31;;;;;;;31.25;16.10;;;;;;;;;;5032878;28;20535;-53
2022/01/26 06:09:57;;;;;;;25.25;15.18;;;;;;;;;;5026638;28;20077;-54
2022/01/26 06:12:23;;;;;;;31.02;17.45;;;;;;;;;;5027788;28;20520;-53
2022/01/26 06:14:49;;;;;;;25.83;15.43;;;;;;;;;;5030110;28;20060;-53
2022/01/26 06:17:15;;;;;;;26.23;15.55;;;;;;;;;;5037869;28;20078;-53
2022/01/26 06:19:42;;;;;;;25.92;14.68;;;;;;;;;;5049232;28;20505;-53
2022/01/26 06:22:08;;;;;;;24.25;14.40;;;;;;;;;;5049633;28;20067;-54
2022/01/26 06:24:34;;;;;;;23.77;14.30;;;;;;;;;;5049687;28;20494;-54
2022/01/26 06:27:00;;;;;;;33.65;18.85;;;;;;;;;;5046027;28;20055;-53
2022/01/26 06:29:26;;;;;;;31.90;17.85;;;;;;;;;;5049223;28;20025;-52
2022/01/26 06:31:52;;;;;;;27.88;15.88;;;;;;;;;;5037241;28;20033;-50
2022/01/26 06:34:20;;;;;;;27.98;16.13;;;;;;;;;;5047043;28;20025;-54
2022/01/26 06:36:46;;;;;;;24.10;14.32;;;;;;;;;;5049332;28;20438;-54
2022/01/26 06:39:13;;;;;;;26.75;15.43;;;;;;;;;;5042161;28;20393;-53
2022/01/26 06:41:46;;;;;;;20.30;12.52;;;;;;;;;;5042395;28;20021;-53
2022/01/26 06:44:22;;;;;;;21.48;13.13;;;;;;;;;;5046000;28;20025;-54
2022/01/26 06:49:33;;;;;;;24.08;13.65;;;;;;;;;;5041630;28;20079;-55
2022/01/26 06:51:59;;;;;;;23.52;14.10;;;;;;;;;;5049591;28;20024;-54
2022/01/26 06:54:25;;;;;;;24.70;14.63;;;;;;;;;;5042761;28;20036;-55
2022/01/26 06:56:51;;;;;;;23.80;14.07;;;;;;;;;;5029623;28;20129;-55
2022/01/26 06:59:17;;;;;;;23.17;13.15;;;;;;;;;;5027711;28;20037;-54
2022/01/26 07:01:43;;;;;;;23.27;13.75;;;;;;;;;;5027283;28;20037;-55
2022/01/26 07:04:10;;;;;;;22.00;13.45;;;;;;;;;;5027031;28;20106;-55
2022/01/26 07:06:36;;;;;;;24.58;14.27;;;;;;;;;;5046821;28;20393;-54
2022/01/26 07:09:03;;;;;;;21.58;12.73;;;;;;;;;;5039842;28;20033;-55
2022/01/26 07:11:29;;;;;;;26.13;14.40;;;;;;;;;;5035252;28;20131;-54
2022/01/26 07:13:58;;;;;;;22.35;14.05;;;;;;;;;;5034500;28;20493;-54
2022/01/26 07:22:13;;;;;;;25.20;14.50;;;;;;;;;;5043809;28;20045;-54
2022/01/26 07:24:40;;;;;;;25.40;15.00;;;;;;;;;;5042022;28;20045;-54
2022/01/26 07:27:07;;;;;;;20.42;13.07;;;;;;;;;;5038448;28;20497;-55
2022/01/26 07:29:33;;;;;;;22.40;13.32;;;;;;;;;;5034978;28;20115;-54
2022/01/26 07:31:59;;;;;;;26.52;14.40;;;;;;;;;;5037237;28;20516;-54
2022/01/26 07:34:25;;;;;;;23.00;14.07;;;;;;;;;;5044604;28;20132;-55
2022/01/26 07:36:54;;;;;;;29.42;15.70;;;;;;;;;;5048182;28;20045;-54
2022/01/26 07:39:43;;;;;;;28.88;15.63;;;;;;;;;;5048420;28;20037;-54
2022/01/26 07:42:10;;;;;;;30.38;16.08;;;;;;;;;;5047787;28;20025;-54
2022/01/26 07:44:36;;;;;;;26.42;15.15;;;;;;;;;;5040171;28;20111;-54
2022/01/26 07:47:03;;;;;;;27.90;15.40;;;;;;;;;;5030349;28;20033;-55
2022/01/26 07:49:29;;;;;;;28.13;16.08;;;;;;;;;;5035221;28;20455;-54
2022/01/26 07:51:55;;;;;;;30.75;16.35;;;;;;;;;;5037731;28;20443;-55
2022/01/26 07:54:22;;;;;;;27.42;15.75;;;;;;;;;;5030535;28;20091;-53
2022/01/26 07:56:48;;;;;;;26.30;15.05;;;;;;;;;;5028488;28;20022;-54
2022/01/26 07:59:14;;;;;;;25.50;14.57;;;;;;;;;;5029324;28;20033;-54
2022/01/26 08:01:40;;;;;;;25.65;15.10;;;;;;;;;;5048367;28;20132;-54
2022/01/26 08:04:06;;;;;;;26.35;15.05;;;;;;;;;;5042704;28;20108;-55
2022/01/26 08:06:32;;;;;;;27.23;14.57;;;;;;;;;;5031941;28;20028;-54
2022/01/26 08:08:58;;;;;;;23.38;13.43;;;;;;;;;;5049075;28;20037;-54
2022/01/26 08:11:25;;;;;;;23.40;13.20;;;;;;;;;;5037822;28;20120;-55
2022/01/26 08:13:52;;;;;;;25.05;13.18;;;;;;;;;;5029007;28;20045;-55
2022/01/26 08:16:18;;;;;;;23.48;13.02;;;;;;;;;;5028750;28;20057;-54
2022/01/26 08:18:44;;;;;;;22.60;13.18;;;;;;;;;;5034179;28;20036;-55
2022/01/26 08:21:10;;;;;;;23.23;14.23;;;;;;;;;;5032387;28;20029;-55
2022/01/26 08:23:37;;;;;;;21.33;12.40;;;;;;;;;;5027419;28;20179;-54
2022/01/26 08:26:04;;;;;;;23.13;12.48;;;;;;;;;;5031023;28;20504;-54
2022/01/26 08:28:38;;;;;;;19.95;12.10;;;;;;;;;;5041517;28;20043;-54
2022/01/26 08:31:04;;;;;;;21.02;13.25;;;;;;;;;;5048090;28;20052;-55
2022/01/26 08:33:30;;;;;;;22.25;12.45;;;;;;;;;;5034629;28;21419;-55
2022/01/26 08:35:56;;;;;;;18.85;11.35;;;;;;;;;;5047692;28;20029;-55
2022/01/26 08:38:23;;;;;;;20.25;11.52;;;;;;;;;;5045788;28;20743;-55
2022/01/26 08:40:49;;;;;;;22.25;12.57;;;;;;;;;;5047840;28;20431;-55
2022/01/26 08:43:15;;;;;;;26.30;15.05;;;;;;;;;;5030357;28;20497;-55
2022/01/26 08:45:42;;;;;;;24.63;14.32;;;;;;;;;;5034736;28;20017;-54
2022/01/26 08:48:08;;;;;;;24.73;14.23;;;;;;;;;;5047961;28;20021;-55
2022/01/26 08:50:35;;;;;;;23.95;13.52;;;;;;;;;;5047393;28;20032;-55
2022/01/26 08:53:01;;;;;;;25.17;13.98;;;;;;;;;;5046195;28;20399;-55
2022/01/26 08:55:27;;;;;;;24.10;12.68;;;;;;;;;;5045645;28;20423;-55
2022/01/26 08:57:53;;;;;;;24.40;13.68;;;;;;;;;;5047240;28;20037;-55
2022/01/26 09:00:20;;;;;;;27.88;15.57;;;;;;;;;;5030220;28;20036;-55
2022/01/26 09:02:47;;;;;;;26.15;15.57;;;;;;;;;;5041385;28;20036;-54
2022/01/26 09:05:14;;;;;;;30.42;16.20;;;;;;;;;;5038259;28;20032;-55
2022/01/26 09:07:43;;;;;;;25.27;14.70;;;;;;;;;;5045833;28;20112;-55
2022/01/26 09:10:10;;;;;;;27.20;15.35;;;;;;;;;;5046417;28;20017;-54
2022/01/26 09:12:41;;;;;;;26.13;15.10;;;;;;;;;;5026846;28;20493;-53
2022/01/26 09:15:07;;;;;;;24.02;12.98;;;;;;;;;;5038047;28;20053;-56
2022/01/26 09:17:35;;;;;;;22.80;13.23;;;;;;;;;;5030547;28;20033;-55
2022/01/26 09:20:04;;;;;;;18.98;12.30;;;;;;;;;;5027896;28;20026;-54
2022/01/26 09:22:30;;;;;;;19.63;11.85;;;;;;;;;;5031927;28;20079;-54
2022/01/26 09:24:56;;;;;;;19.20;11.77;;;;;;;;;;5044419;28;20090;-54
2022/01/26 09:27:22;;;;;;;16.70;10.98;;;;;;;;;;5047332;28;20063;-54
2022/01/26 09:29:48;;;;;;;16.55;10.25;;;;;;;;;;5047240;28;20465;-55
2022/01/26 09:32:15;;;;;;;17.67;10.32;;;;;;;;;;5047310;28;20033;-55
2022/01/26 09:34:41;;;;;;;19.35;10.48;;;;;;;;;;5044506;28;20108;-55
2022/01/26 09:37:10;;;;;;;17.17;9.77;;;;;;;;;;5047253;28;20033;-55
2022/01/26 09:39:38;;;;;;;16.45;9.73;;;;;;;;;;5046645;28;20029;-56
2022/01/26 09:42:04;;;;;;;18.02;10.32;;;;;;;;;;5044340;28;20035;-55
2022/01/26 09:44:31;;;;;;;17.65;10.80;;;;;;;;;;5029432;28;20032;-55
2022/01/26 09:46:57;;;;;;;15.23;9.98;;;;;;;;;;5039325;28;20515;-55
2022/01/26 09:49:30;;;;;;;17.55;10.20;;;;;;;;;;5031354;28;20029;-54
2022/01/26 09:51:59;;;;;;;17.63;10.98;;;;;;;;;;5035372;28;20028;-55
2022/01/26 09:54:30;;;;;;;19.08;11.38;;;;;;;;;;5046444;28;20025;-55
2022/01/26 09:57:01;;;;;;;17.92;10.98;;;;;;;;;;5046734;28;20025;-53
2022/01/26 09:59:27;;;;;;;18.42;10.60;;;;;;;;;;5046862;28;20028;-55
2022/01/26 10:01:53;;;;;;;17.05;10.90;;;;;;;;;;5044015;28;20047;-55
2022/01/26 10:04:24;;;;;;;16.88;10.15;;;;;;;;;;5040756;28;20136;-55
2022/01/26 10:10:04;;;;;;;19.67;11.52;;;;;;;;;;5024726;28;20045;-54
2022/01/26 10:15:30;;;;;;;18.15;10.98;;;;;;;;;;5027163;28;20463;-54
2022/01/26 10:18:16;;;;;;;16.80;10.48;;;;;;;;;;5026896;28;20025;-53
2022/01/26 10:20:49;;;;;;;16.48;9.73;;;;;;;;;;5028895;28;20021;-54
2022/01/26 10:23:17;;;;;;;15.82;9.82;;;;;;;;;;5040038;28;20408;-54
2022/01/26 10:25:45;;;;;;;18.02;10.43;;;;;;;;;;5045554;28;20969;-54
2022/01/26 10:28:13;;;;;;;17.98;10.60;;;;;;;;;;5045028;28;20037;-54
2022/01/26 10:30:44;;;;;;;15.63;9.82;;;;;;;;;;5046256;28;20017;-55
2022/01/26 10:33:11;;;;;;;17.45;10.38;;;;;;;;;;5046358;28;20501;-54
2022/01/26 10:35:37;;;;;;;16.45;10.57;;;;;;;;;;5046402;28;20096;-55
2022/01/26 10:38:04;;;;;;;20.13;11.40;;;;;;;;;;5046712;28;20024;-53
2022/01/26 10:40:31;;;;;;;19.98;11.48;;;;;;;;;;5046758;28;20032;-55
2022/01/26 10:42:59;;;;;;;20.27;11.00;;;;;;;;;;5046101;28;20029;-55
2022/01/26 10:45:34;;;;;;;36.13;18.15;;;;;;;;;;5046273;28;20056;-53
2022/01/26 10:48:17;;;;;;;35.10;16.70;;;;;;;;;;5047165;28;20420;-55
2022/01/26 10:50:57;;;;;;;28.83;14.38;;;;;;;;;;5046218;28;20116;-55
2022/01/26 10:53:26;;;;;;;23.65;13.77;;;;;;;;;;5038028;28;20556;-56
2022/01/26 10:55:52;;;;;;;23.98;12.43;;;;;;;;;;5025529;28;20096;-56
2022/01/26 10:58:20;;;;;;;20.23;11.82;;;;;;;;;;5028258;28;20401;-55
2022/01/26 11:00:46;;;;;;;20.23;11.27;;;;;;;;;;5032734;28;20020;-56
2022/01/26 11:03:12;;;;;;;19.27;11.38;;;;;;;;;;5038116;28;20400;-56
2022/01/26 11:05:38;;;;;;;16.50;9.70;;;;;;;;;;5045899;28;20542;-56
2022/01/26 11:08:04;;;;;;;15.98;9.90;;;;;;;;;;5035822;28;20033;-56
2022/01/26 11:10:35;;;;;;;19.15;11.65;;;;;;;;;;5046007;28;20120;-56
2022/01/26 11:13:01;;;;;;;17.92;10.98;;;;;;;;;;5040735;28;20434;-56
2022/01/26 11:15:27;;;;;;;20.52;11.55;;;;;;;;;;5044739;28;20029;-56
2022/01/26 11:18:04;;;;;;;18.23;11.02;;;;;;;;;;5034703;28;20033;-55
2022/01/26 11:20:34;;;;;;;18.75;11.18;;;;;;;;;;5035362;28;20444;-55
2022/01/26 11:23:02;;;;;;;19.52;11.38;;;;;;;;;;5030277;28;20377;-54
2022/01/26 11:25:30;;;;;;;21.52;11.50;;;;;;;;;;5031168;28;20057;-55
2022/01/26 11:27:57;;;;;;;20.95;12.02;;;;;;;;;;5036572;28;20025;-55
2022/01/26 11:30:29;;;;;;;19.42;11.18;;;;;;;;;;5043016;28;20040;-55
2022/01/26 11:32:57;;;;;;;20.27;11.20;;;;;;;;;;5042851;28;20029;-55
2022/01/26 11:35:25;;;;;;;20.05;11.25;;;;;;;;;;5032748;28;20038;-55
2022/01/26 11:38:05;;;;;;;18.95;11.07;;;;;;;;;;5029979;28;20048;-56
2022/01/26 11:46:22;;;;;;;22.35;12.95;;;;;;;;;;5030551;28;20571;-55
2022/01/26 11:48:58;;;;;;;22.55;13.18;;;;;;;;;;5028457;28;20507;-55
2022/01/26 11:51:24;;;;;;;21.67;12.32;;;;;;;;;;5038175;28;20548;-56
2022/01/26 11:53:50;;;;;;;20.55;11.82;;;;;;;;;;5033271;28;20484;-55
2022/01/26 11:56:20;;;;;;;20.95;12.35;;;;;;;;;;5048824;28;20063;-55
2022/01/26 11:58:48;;;;;;;21.85;12.57;;;;;;;;;;5029768;28;20021;-55
2022/01/26 12:03:55;;;;;;;26.60;15.18;;;;;;;;;;5047371;28;20613;-54
2022/01/26 12:06:35;;;;;;;26.67;13.93;;;;;;;;;;5034051;28;20013;-53
2022/01/26 12:09:02;;;;;;;23.67;13.68;;;;;;;;;;5028451;28;20438;-55
2022/01/26 12:11:31;;;;;;;22.17;13.02;;;;;;;;;;5028773;28;20053;-54
2022/01/26 12:13:58;;;;;;;23.98;13.15;;;;;;;;;;5037124;28;20070;-54
2022/01/26 12:16:32;;;;;;;26.48;15.02;;;;;;;;;;5039314;28;20021;-53
2022/01/26 12:19:11;;;;;;;27.58;14.70;;;;;;;;;;5027856;28;20021;-54
2022/01/26 12:43:39;;;;;;;20.13;11.77;;;;;;;;;;5047462;28;20480;-54
2022/01/26 12:46:06;;;;;;;18.77;10.73;;;;;;;;;;5043157;28;20111;-55
2022/01/26 12:48:34;;;;;;;20.85;10.75;;;;;;;;;;5044595;28;20083;-55
2022/01/26 12:51:02;;;;;;;19.65;10.82;;;;;;;;;;5032499;28;20025;-55
2022/01/26 12:53:29;;;;;;;22.77;12.40;;;;;;;;;;5027477;28;20028;-56
2022/01/26 12:55:59;;;;;;;23.63;12.65;;;;;;;;;;5030240;28;20310;-56
2022/01/26 12:58:26;;;;;;;19.45;10.75;;;;;;;;;;5035638;28;20021;-56
2022/01/26 13:00:53;;;;;;;22.58;11.68;;;;;;;;;;5044855;28;20029;-56
2022/01/26 13:03:23;;;;;;;21.48;12.25;;;;;;;;;;5045262;28;20237;-56
2022/01/26 13:05:50;;;;;;;19.92;11.77;;;;;;;;;;5043450;28;20108;-56
2022/01/26 13:08:16;;;;;;;21.38;12.20;;;;;;;;;;5044258;28;20074;-56
2022/01/26 13:10:42;;;;;;;21.63;12.40;;;;;;;;;;5031473;28;20061;-55
2022/01/26 13:13:20;;;;;;;23.17;11.73;;;;;;;;;;5044362;28;20063;-56
2022/01/26 13:16:07;;;;;;;22.05;11.98;;;;;;;;;;5027286;28;20026;-55
2022/01/26 13:23:47;;;;;;;19.58;11.90;;;;;;;;;;5033083;28;20117;-56
2022/01/26 13:29:14;;;;;;;23.30;12.97;;;;;;;;;;5024185;28;20555;-56
2022/01/26 13:37:47;;;;;;;23.15;12.85;;;;;;;;;;5031085;28;20427;-56
2022/01/26 13:46:47;;;;;;;23.85;13.02;;;;;;;;;;5029739;28;20044;-56
2022/01/26 13:59:19;;;;;;;26.30;13.73;;;;;;;;;;5045725;28;20532;-56
2022/01/26 14:01:47;;;;;;;25.15;13.32;;;;;;;;;;5045705;28;20043;-56
2022/01/26 14:04:17;;;;;;;23.90;13.57;;;;;;;;;;5039718;28;20025;-56
2022/01/26 14:06:46;;;;;;;22.27;12.38;;;;;;;;;;5025403;28;20048;-57
2022/01/26 14:09:13;;;;;;;22.33;12.15;;;;;;;;;;5025054;28;20118;-57
2022/01/26 14:11:39;;;;;;;21.35;12.30;;;;;;;;;;5024753;28;20034;-57
2022/01/26 14:14:05;;;;;;;20.25;12.13;;;;;;;;;;5025372;28;20032;-57
2022/01/26 14:16:43;;;;;;;21.77;11.93;;;;;;;;;;5030578;28;20028;-57
2022/01/26 14:19:26;;;;;;;18.73;10.63;;;;;;;;;;5043717;28;20021;-57
2022/01/26 14:25:13;;;;;;;18.70;10.73;;;;;;;;;;5065135;28;20046;-57
2022/01/26 14:27:45;;;;;;;17.38;10.63;;;;;;;;;;5065201;28;20044;-56
2022/01/26 14:54:44;;;;;;;15.02;8.98;;;;;;;;;;5046681;28;20384;-57
2022/01/26 15:19:43;;;;;;;15.43;8.30;;;;;;;;;;5036192;28;20036;-57
2022/01/26 15:57:18;;;;;;;17.35;9.48;;;;;;;;;;5027882;28;20057;-56
2022/01/26 15:59:22;;;;;;;17.35;9.43;;;;;;;;;;5028340;28;20043;-57
2022/01/26 16:35:09;;;;;;;25.67;12.38;;;;;;;;;;5047990;28;20039;-56
2022/01/26 17:46:58;;;;;;;22.05;10.40;;;;;;;;;;5029405;28;20052;-57
2022/01/26 18:49:33;;;;;;;20.65;10.35;;;;;;;;;;5031412;28;20029;-57
2022/01/26 18:52:01;;;;;;;23.25;11.32;;;;;;;;;;5032077;28;20018;-57
2022/01/26 18:54:32;;;;;;;20.15;10.38;;;;;;;;;;5015924;28;20136;-57
2022/01/26 18:57:01;;;;;;;22.17;10.65;;;;;;;;;;5039493;28;20025;-57
2022/01/26 18:59:28;;;;;;;18.67;9.32;;;;;;;;;;5034149;28;20036;-57
2022/01/26 19:01:55;;;;;;;22.15;10.50;;;;;;;;;;5034458;28;20055;-57
2022/01/26 19:04:27;;;;;;;20.15;9.70;;;;;;;;;;5028324;28;20501;-58
2022/01/26 19:06:54;;;;;;;24.60;11.38;;;;;;;;;;5032435;28;20550;-57
2022/01/26 19:09:24;;;;;;;23.10;11.07;;;;;;;;;;5034496;28;20648;-57
2022/01/26 19:11:50;;;;;;;19.33;9.98;;;;;;;;;;5032459;28;20046;-57
2022/01/26 19:14:16;;;;;;;19.80;10.65;;;;;;;;;;5037953;28;20403;-57
2022/01/26 19:16:49;;;;;;;18.17;9.55;;;;;;;;;;5034553;28;20021;-57
2022/01/26 19:19:36;;;;;;;21.55;10.20;;;;;;;;;;5034201;28;20057;-58
2022/01/26 19:24:54;;;;;;;22.10;10.55;;;;;;;;;;5027897;28;20051;-58
2022/01/26 19:32:39;;;;;;;20.08;9.48;;;;;;;;;;5054633;28;20036;-58
2022/01/26 19:51:11;;;;;;;21.85;10.20;;;;;;;;;;5028639;28;20448;-58
2022/01/26 19:53:37;;;;;;;20.17;9.63;;;;;;;;;;5044034;28;20111;-58
2022/01/26 19:56:04;;;;;;;19.55;9.68;;;;;;;;;;5026583;28;20108;-58
2022/01/26 19:58:30;;;;;;;17.50;9.20;;;;;;;;;;5028969;28;20534;-58
2022/01/26 20:00:57;;;;;;;17.65;9.38;;;;;;;;;;5034217;28;20133;-57
2022/01/26 20:03:23;;;;;;;18.38;8.80;;;;;;;;;;5034055;28;20079;-57
2022/01/26 20:05:53;;;;;;;18.45;8.93;;;;;;;;;;5033413;28;20075;-57
2022/01/26 20:08:33;;;;;;;20.52;9.93;;;;;;;;;;5037793;28;20035;-58
2022/01/26 20:11:05;;;;;;;20.92;9.52;;;;;;;;;;5037684;28;20504;-57
2022/01/26 20:13:37;;;;;;;20.30;9.23;;;;;;;;;;5038041;28;20377;-58
2022/01/26 20:16:04;;;;;;;18.17;9.48;;;;;;;;;;5045155;28;20036;-58
2022/01/26 20:18:30;;;;;;;17.90;8.77;;;;;;;;;;5043206;28;20021;-57
2022/01/26 20:21:02;;;;;;;20.27;9.48;;;;;;;;;;5031625;28;20037;-57
2022/01/26 20:23:32;;;;;;;20.88;9.55;;;;;;;;;;5026181;28;20029;-58
2022/01/26 20:26:00;;;;;;;20.35;9.98;;;;;;;;;;5025594;28;20033;-57
2022/01/26 20:28:28;;;;;;;20.20;9.68;;;;;;;;;;5027496;28;20116;-57
2022/01/26 20:30:55;;;;;;;23.17;11.18;;;;;;;;;;5032602;28;20451;-57
2022/01/26 20:33:21;;;;;;;20.73;9.82;;;;;;;;;;5036107;28;20028;-58
2022/01/26 20:35:48;;;;;;;20.95;9.40;;;;;;;;;;5042153;28;20043;-57
2022/01/26 20:38:14;;;;;;;18.20;8.88;;;;;;;;;;5035402;28;20029;-57
2022/01/26 20:40:40;;;;;;;18.75;8.73;;;;;;;;;;5038246;28;20116;-57
2022/01/26 20:43:09;;;;;;;22.38;9.80;;;;;;;;;;5028160;28;20647;-57
2022/01/26 20:45:35;;;;;;;18.52;8.88;;;;;;;;;;5034419;28;20101;-57
2022/01/26 20:48:02;;;;;;;20.27;9.23;;;;;;;;;;5033210;28;20033;-57
2022/01/26 20:50:30;;;;;;;18.40;8.55;;;;;;;;;;5026618;28;20064;-58
2022/01/26 20:52:56;;;;;;;17.92;8.68;;;;;;;;;;5035275;28;20087;-58
2022/01/26 20:55:22;;;;;;;19.23;8.68;;;;;;;;;;5036497;28;20037;-58
2022/01/26 20:57:48;;;;;;;20.92;9.38;;;;;;;;;;5035988;28;20515;-58
2022/01/26 21:00:16;;;;;;;19.65;9.73;;;;;;;;;;5037242;28;20033;-57
2022/01/26 21:02:48;;;;;;;17.50;8.50;;;;;;;;;;5027294;28;20025;-57
2022/01/26 21:05:15;;;;;;;19.55;9.77;;;;;;;;;;5030997;28;20064;-58
2022/01/26 21:07:41;;;;;;;17.98;8.48;;;;;;;;;;5024120;28;20025;-58
2022/01/26 21:10:09;;;;;;;21.15;9.38;;;;;;;;;;5043011;28;20112;-58
2022/01/26 21:12:35;;;;;;;18.10;8.88;;;;;;;;;;5031597;28;20040;-56
2022/01/26 21:15:04;;;;;;;18.33;8.88;;;;;;;;;;5034201;28;20029;-56
2022/01/26 21:17:30;;;;;;;18.25;8.45;;;;;;;;;;5034197;28;20025;-57
2022/01/26 21:19:56;;;;;;;17.38;8.10;;;;;;;;;;5038724;28;20024;-57
2022/01/26 21:22:22;;;;;;;20.70;8.73;;;;;;;;;;5030702;28;20032;-57
2022/01/26 21:24:48;;;;;;;21.20;8.50;;;;;;;;;;5039724;28;20393;-57
2022/01/26 21:27:16;;;;;;;23.83;10.57;;;;;;;;;;5030005;28;20083;-57
2022/01/26 21:29:42;;;;;;;25.75;11.35;;;;;;;;;;5041718;28;20484;-57
2022/01/26 21:32:08;;;;;;;25.40;10.90;;;;;;;;;;5037109;28;20029;-56
2022/01/26 21:34:34;;;;;;;23.35;10.63;;;;;;;;;;5033319;28;20424;-56